createdAt,value
2018-10-09T00:01:51.107Z,9.97
2018-10-09T00:04:19.261Z,13.00
2018-10-09T00:06:47.435Z,12.10
2018-10-09T00:09:15.569Z,13.70
2018-10-09T00:11:43.679Z,12.93
2018-10-09T00:14:11.847Z,11.15
2018-10-09T00:16:39.994Z,13.20
2018-10-09T00:19:08.137Z,12.58
2018-10-09T00:21:36.275Z,15.23
2018-10-09T00:24:04.410Z,12.00
2018-10-09T00:26:32.619Z,11.63
2018-10-09T00:29:00.799Z,11.93
2018-10-09T00:31:28.908Z,16.35
2018-10-09T00:33:57.069Z,12.20
2018-10-09T00:36:25.196Z,12.43
2018-10-09T00:38:53.355Z,13.13
2018-10-09T00:41:21.553Z,13.58
2018-10-09T00:43:49.704Z,13.00
2018-10-09T00:46:17.959Z,12.20
2018-10-09T00:48:46.107Z,14.95
2018-10-09T00:51:14.237Z,12.50
2018-10-09T00:53:42.411Z,16.17
2018-10-09T00:56:10.727Z,15.88
2018-10-09T00:58:38.921Z,14.07
2018-10-09T01:01:08.085Z,14.18
2018-10-09T01:03:36.206Z,12.47
2018-10-09T01:06:04.412Z,11.38
2018-10-09T01:08:32.675Z,12.80
2018-10-09T01:11:01.107Z,14.03
2018-10-09T01:13:29.237Z,13.20
2018-10-09T01:15:57.511Z,13.10
2018-10-09T01:18:25.738Z,11.45
2018-10-09T01:20:53.889Z,18.23
2018-10-09T01:23:23.881Z,13.53
2018-10-09T01:25:52.044Z,14.63
2018-10-09T01:28:20.252Z,16.25
2018-10-09T01:30:48.491Z,15.30
2018-10-09T01:33:16.679Z,13.93
2018-10-09T01:35:44.837Z,15.55
2018-10-09T01:38:13.010Z,16.23
2018-10-09T01:40:41.176Z,12.63
2018-10-09T01:43:09.351Z,14.30
2018-10-09T01:45:37.536Z,14.23
2018-10-09T01:48:05.911Z,16.57
2018-10-09T01:50:34.042Z,16.20
2018-10-09T01:53:02.192Z,13.55
2018-10-09T01:55:30.366Z,14.40
2018-10-09T01:57:58.527Z,15.00
2018-10-09T02:00:26.671Z,16.55
2018-10-09T02:02:54.840Z,14.73
2018-10-09T02:05:22.997Z,15.40
2018-10-09T02:07:51.453Z,16.42
2018-10-09T02:10:19.566Z,15.35
2018-10-09T02:12:47.734Z,13.83
2018-10-09T02:15:15.872Z,13.65
2018-10-09T02:17:44.226Z,16.23
2018-10-09T02:20:12.376Z,15.18
2018-10-09T02:22:40.502Z,13.13
2018-10-09T02:25:08.656Z,13.93
2018-10-09T02:27:36.793Z,17.92
2018-10-09T02:30:06.623Z,15.78
2018-10-09T02:32:34.795Z,15.68
2018-10-09T02:35:02.909Z,15.43
2018-10-09T02:37:31.122Z,18.35
2018-10-09T02:39:59.291Z,17.17
2018-10-09T02:42:27.459Z,18.70
2018-10-09T02:44:55.644Z,19.55
2018-10-09T02:47:23.771Z,17.85
2018-10-09T02:49:51.917Z,16.23
2018-10-09T02:52:20.105Z,17.85
2018-10-09T02:54:48.255Z,21.05
2018-10-09T02:57:16.459Z,19.57
2018-10-09T02:59:44.580Z,16.85
2018-10-09T03:02:12.746Z,20.05
2018-10-09T03:04:41.124Z,14.70
2018-10-09T03:07:09.294Z,18.02
2018-10-09T03:09:37.447Z,15.35
2018-10-09T03:12:05.627Z,15.28
2018-10-09T03:14:33.767Z,17.00
2018-10-09T03:17:01.870Z,16.23
2018-10-09T03:19:30.039Z,18.00
2018-10-09T03:21:58.216Z,19.40
2018-10-09T03:24:26.361Z,18.37
2018-10-09T03:26:54.521Z,19.37
2018-10-09T03:29:23.122Z,22.52
2018-10-09T03:31:51.362Z,19.20
2018-10-09T03:34:19.487Z,19.27
2018-10-09T03:36:47.625Z,16.15
2018-10-09T03:39:15.734Z,17.87
2018-10-09T03:41:43.883Z,17.80
2018-10-09T03:44:12.039Z,38.08
2018-10-09T03:46:40.252Z,18.57
2018-10-09T03:49:08.419Z,18.20
2018-10-09T03:51:36.546Z,18.05
2018-10-09T03:54:04.751Z,20.02
2018-10-09T03:56:32.913Z,19.25
2018-10-09T03:59:01.010Z,20.15
2018-10-09T04:01:29.177Z,19.32
2018-10-09T04:03:57.691Z,17.73
2018-10-09T04:06:25.833Z,20.10
2018-10-09T04:08:54.015Z,18.57
2018-10-09T04:11:23.007Z,19.35
2018-10-09T04:13:51.176Z,20.45
2018-10-09T04:16:19.352Z,20.40
2018-10-09T04:18:47.499Z,20.08
2018-10-09T04:21:15.698Z,18.17
2018-10-09T04:23:43.844Z,19.07
2018-10-09T04:26:12.020Z,18.55
2018-10-09T04:28:40.176Z,18.45
2018-10-09T04:31:08.770Z,21.90
2018-10-09T04:33:36.975Z,22.02
2018-10-09T04:36:05.226Z,20.68
2018-10-09T04:38:33.768Z,20.95
2018-10-09T04:41:02.000Z,19.80
2018-10-09T04:43:31.140Z,18.95
2018-10-09T04:45:59.273Z,20.57
2018-10-09T04:48:27.446Z,21.52
2018-10-09T04:53:23.388Z,22.32
2018-10-09T04:55:51.560Z,20.48
2018-10-09T04:58:19.716Z,24.50
2018-10-09T05:00:47.988Z,26.50
2018-10-09T05:03:16.205Z,21.85
2018-10-09T05:05:44.435Z,21.00
2018-10-09T05:08:12.590Z,24.90
2018-10-09T05:10:40.740Z,23.40
2018-10-09T05:13:08.980Z,22.20
2018-10-09T05:15:37.155Z,22.32
2018-10-09T05:18:05.346Z,22.02
2018-10-09T05:20:34.542Z,23.42
2018-10-09T05:23:02.731Z,25.15
2018-10-09T05:25:30.872Z,25.30
2018-10-09T05:27:59.071Z,24.60
2018-10-09T05:30:27.310Z,23.07
2018-10-09T05:32:55.475Z,19.30
2018-10-09T05:35:23.653Z,24.47
2018-10-09T05:37:52.232Z,20.17
2018-10-09T05:40:20.414Z,24.47
2018-10-09T05:42:48.680Z,21.20
2018-10-09T05:45:16.987Z,25.32
2018-10-09T05:47:45.176Z,21.90
2018-10-09T05:50:13.359Z,22.50
2018-10-09T05:52:41.565Z,21.65
2018-10-09T05:55:09.741Z,24.60
2018-10-09T05:57:38.019Z,25.02
2018-10-09T06:00:07.355Z,24.37
2018-10-09T06:02:35.502Z,31.17
2018-10-09T06:05:03.687Z,27.82
2018-10-09T06:07:31.843Z,25.60
2018-10-09T06:09:59.980Z,26.65
2018-10-09T06:12:28.174Z,32.72
2018-10-09T06:14:56.318Z,21.82
2018-10-09T06:17:24.433Z,26.40
2018-10-09T06:19:52.591Z,26.68
2018-10-09T06:22:20.763Z,21.77
2018-10-09T06:24:48.943Z,24.98
2018-10-09T06:27:17.136Z,24.05
2018-10-09T06:29:45.270Z,28.60
2018-10-09T06:32:13.407Z,24.75
2018-10-09T06:34:41.545Z,25.95
2018-10-09T06:37:10.309Z,23.38
2018-10-09T06:39:38.466Z,23.98
2018-10-09T06:42:06.615Z,34.65
2018-10-09T06:44:34.748Z,31.03
2018-10-09T06:47:02.894Z,23.80
2018-10-09T06:49:31.027Z,23.37
2018-10-09T06:51:59.261Z,25.23
2018-10-09T06:54:27.484Z,24.72
2018-10-09T06:56:55.572Z,22.80
2018-10-09T06:59:23.737Z,26.07
2018-10-09T07:01:51.870Z,27.40
2018-10-09T07:04:20.028Z,26.07
2018-10-09T07:06:48.234Z,22.98
2018-10-09T07:09:16.413Z,27.77
2018-10-09T07:11:44.590Z,31.48
2018-10-09T07:14:12.721Z,24.98
2018-10-09T07:16:40.901Z,30.12
2018-10-09T07:19:09.048Z,26.52
2018-10-09T07:21:37.196Z,26.17
2018-10-09T07:24:05.368Z,27.32
2018-10-09T07:26:33.542Z,30.20
2018-10-09T07:29:01.744Z,30.37
2018-10-09T07:31:29.912Z,32.70
2018-10-09T07:33:58.174Z,28.60
2018-10-09T07:36:26.371Z,35.98
2018-10-09T07:38:54.504Z,29.07
2018-10-09T07:41:23.320Z,29.42
2018-10-09T07:43:51.526Z,30.57
2018-10-09T07:46:19.656Z,30.23
2018-10-09T07:48:47.816Z,25.12
2018-10-09T07:51:16.034Z,28.87
2018-10-09T07:53:44.196Z,26.97
2018-10-09T07:56:12.359Z,28.65
2018-10-09T07:58:40.568Z,25.67
2018-10-09T08:01:08.627Z,36.88
2018-10-09T08:03:36.761Z,35.08
2018-10-09T08:06:04.899Z,27.60
2018-10-09T08:08:33.161Z,40.43
2018-10-09T08:11:01.644Z,24.75
2018-10-09T08:13:29.736Z,28.55
2018-10-09T08:15:57.903Z,29.67
2018-10-09T08:18:26.036Z,28.27
2018-10-09T08:20:54.205Z,26.68
2018-10-09T08:23:23.268Z,27.73
2018-10-09T08:25:51.461Z,29.77
2018-10-09T08:28:19.609Z,25.37
2018-10-09T08:30:47.719Z,35.63
2018-10-09T08:33:15.864Z,27.00
2018-10-09T08:35:44.041Z,26.73
2018-10-09T08:38:12.167Z,27.10
2018-10-09T08:40:40.328Z,30.20
2018-10-09T08:43:08.469Z,23.92
2018-10-09T08:45:36.608Z,28.10
2018-10-09T08:48:04.747Z,24.27
2018-10-09T08:50:32.879Z,18.98
2018-10-09T08:53:01.023Z,23.87
2018-10-09T08:55:29.236Z,27.10
2018-10-09T08:57:57.440Z,25.90
2018-10-09T09:00:25.617Z,20.95
2018-10-09T09:02:53.991Z,19.05
2018-10-09T09:05:22.109Z,19.12
2018-10-09T09:07:50.280Z,23.07
2018-10-09T09:10:18.487Z,26.25
2018-10-09T09:12:46.677Z,18.45
2018-10-09T09:15:14.834Z,18.82
2018-10-09T09:17:42.976Z,20.23
2018-10-09T09:20:11.852Z,21.55
2018-10-09T09:22:39.967Z,19.45
2018-10-09T09:25:08.088Z,21.60
2018-10-09T09:27:36.260Z,22.52
2018-10-09T09:30:04.892Z,27.40
2018-10-09T09:32:33.048Z,21.87
2018-10-09T09:35:01.176Z,25.43
2018-10-09T09:37:29.304Z,21.27
2018-10-09T09:39:57.431Z,26.07
2018-10-09T09:42:25.654Z,30.25
2018-10-09T09:44:53.835Z,25.60
2018-10-09T09:47:21.985Z,26.25
2018-10-09T09:49:50.172Z,23.62
2018-10-09T09:52:18.315Z,29.63
2018-10-09T09:54:46.456Z,29.00
2018-10-09T09:57:14.596Z,23.35
2018-10-09T09:59:42.837Z,29.15
2018-10-09T10:02:10.991Z,30.32
2018-10-09T10:04:39.111Z,26.60
2018-10-09T10:07:07.293Z,29.20
2018-10-09T10:09:35.460Z,27.65
2018-10-09T10:12:03.632Z,26.37
2018-10-09T10:14:31.925Z,25.00
2018-10-09T10:17:00.068Z,32.08
2018-10-09T10:19:28.236Z,27.82
2018-10-09T10:21:56.428Z,27.10
2018-10-09T10:24:24.577Z,33.40
2018-10-09T10:26:52.728Z,27.90
2018-10-09T10:29:20.938Z,29.12
2018-10-09T10:31:49.024Z,25.15
2018-10-09T10:34:17.209Z,28.73
2018-10-09T10:36:45.395Z,30.95
2018-10-09T10:39:13.620Z,25.75
2018-10-09T10:41:42.060Z,25.07
2018-10-09T10:44:10.259Z,28.10
2018-10-09T10:46:39.199Z,23.60
2018-10-09T10:49:09.140Z,28.15
2018-10-09T10:51:37.610Z,32.63
2018-10-09T10:54:06.582Z,24.92
2018-10-09T10:56:35.474Z,31.48
2018-10-09T10:59:03.734Z,28.07
2018-10-09T11:01:31.970Z,25.57
2018-10-09T11:04:00.126Z,26.60
2018-10-09T11:06:28.265Z,26.30
2018-10-09T11:08:56.383Z,27.45
2018-10-09T11:11:24.516Z,27.55
2018-10-09T11:13:52.662Z,26.42
2018-10-09T11:16:20.822Z,24.90
2018-10-09T11:18:49.112Z,25.45
2018-10-09T11:21:17.334Z,25.65
2018-10-09T11:23:45.373Z,24.43
2018-10-09T11:26:13.494Z,25.85
2018-10-09T11:28:41.616Z,26.93
2018-10-09T11:31:09.723Z,26.02
2018-10-09T11:33:37.944Z,25.25
2018-10-09T11:36:06.156Z,24.65
2018-10-09T11:38:34.297Z,20.17
2018-10-09T11:41:02.550Z,22.07
2018-10-09T11:43:30.728Z,21.05
2018-10-09T11:45:58.833Z,19.15
2018-10-09T11:48:26.960Z,20.90
2018-10-09T11:50:55.119Z,18.77
2018-10-09T11:53:23.584Z,18.00
2018-10-09T11:55:51.726Z,18.35
2018-10-09T11:58:19.908Z,21.42
2018-10-09T12:00:49.318Z,19.05
2018-10-09T12:03:17.411Z,17.12
2018-10-09T12:05:45.674Z,19.73
2018-10-09T12:08:13.901Z,14.38
2018-10-09T12:10:42.037Z,17.42
2018-10-09T12:13:10.323Z,15.30
2018-10-09T12:15:38.537Z,14.47
2018-10-09T12:18:06.644Z,13.60
2018-10-09T12:20:34.855Z,12.98
2018-10-09T12:23:02.988Z,17.77
2018-10-09T12:25:31.222Z,22.85
2018-10-09T12:27:59.409Z,14.25
2018-10-09T12:30:27.527Z,15.83
2018-10-09T12:32:55.708Z,15.48
2018-10-09T12:35:23.835Z,15.08
2018-10-09T12:37:51.972Z,17.02
2018-10-09T12:40:20.108Z,14.87
2018-10-09T12:42:48.312Z,14.47
2018-10-09T12:45:16.449Z,12.10
2018-10-09T12:47:44.620Z,10.78
2018-10-09T12:50:12.772Z,14.58
2018-10-09T12:52:40.965Z,12.30
2018-10-09T12:55:09.370Z,17.00
2018-10-09T12:57:37.653Z,15.45
2018-10-09T13:00:05.787Z,17.67
2018-10-09T13:02:34.044Z,13.60
2018-10-09T13:05:02.194Z,13.30
2018-10-09T13:07:30.340Z,15.00
2018-10-09T13:09:58.478Z,13.88
2018-10-09T13:12:26.619Z,13.35
2018-10-09T13:14:54.778Z,14.13
2018-10-09T13:17:23.725Z,17.42
2018-10-09T13:19:51.854Z,15.15
2018-10-09T13:22:20.372Z,16.50
2018-10-09T13:24:48.175Z,11.40
2018-10-09T13:27:16.422Z,15.15
2018-10-09T13:29:44.484Z,16.07
2018-10-09T13:32:12.596Z,20.40
2018-10-09T13:34:40.847Z,12.45
2018-10-09T13:37:08.893Z,11.38
2018-10-09T13:39:37.326Z,13.45
2018-10-09T13:42:05.512Z,18.82
2018-10-09T13:44:33.713Z,16.40
2018-10-09T13:47:01.900Z,16.87
2018-10-09T13:49:30.063Z,12.98
2018-10-09T13:51:58.190Z,13.25
2018-10-09T13:54:26.330Z,15.93
2018-10-09T13:56:54.664Z,17.92
2018-10-09T13:59:23.730Z,11.73
2018-10-09T14:01:51.886Z,16.95
2018-10-09T14:04:20.029Z,12.55
2018-10-09T14:06:48.143Z,14.75
2018-10-09T14:09:16.303Z,15.55
2018-10-09T14:11:44.487Z,15.55
2018-10-09T14:14:12.648Z,12.88
2018-10-09T14:16:40.844Z,15.30
2018-10-09T14:19:09.000Z,10.72
2018-10-09T14:21:37.130Z,12.18
2018-10-09T14:24:05.344Z,13.35
2018-10-09T14:26:33.526Z,11.48
2018-10-09T14:29:01.688Z,11.55
2018-10-09T14:31:29.853Z,13.53
2018-10-09T14:33:57.992Z,15.23
2018-10-09T14:36:26.226Z,15.95
2018-10-09T14:38:54.489Z,18.02
2018-10-09T14:41:22.595Z,17.45
2018-10-09T14:43:50.709Z,18.52
2018-10-09T14:46:18.813Z,12.95
2018-10-09T14:48:47.031Z,14.83
2018-10-09T14:51:15.228Z,14.47
2018-10-09T14:53:43.412Z,13.25
2018-10-09T14:56:11.601Z,15.98
2018-10-09T14:58:39.763Z,12.45
2018-10-09T15:01:08.239Z,15.83
2018-10-09T15:03:36.373Z,13.48
2018-10-09T15:06:04.584Z,11.40
2018-10-09T15:08:32.727Z,12.93
2018-10-09T15:11:00.838Z,13.78
2018-10-09T15:13:29.096Z,11.47
2018-10-09T15:15:57.259Z,10.90
2018-10-09T15:18:25.415Z,15.32
2018-10-09T15:20:53.558Z,13.88
2018-10-09T15:23:21.704Z,14.93
2018-10-09T15:25:49.937Z,15.95
2018-10-09T15:28:18.122Z,15.25
2018-10-09T15:30:46.272Z,15.70
2018-10-09T15:33:14.467Z,13.25
2018-10-09T15:35:42.607Z,11.67
2018-10-09T15:38:10.736Z,13.83
2018-10-09T15:40:38.883Z,15.07
2018-10-09T15:43:06.996Z,12.33
2018-10-09T15:45:35.221Z,14.97
2018-10-09T15:48:03.411Z,14.00
2018-10-09T15:50:31.592Z,12.25
2018-10-09T15:52:59.767Z,11.50
2018-10-09T15:55:27.893Z,13.58
2018-10-09T15:57:56.009Z,18.45
2018-10-09T16:00:24.247Z,14.63
2018-10-09T16:02:52.399Z,14.68
2018-10-09T16:05:20.776Z,16.75
2018-10-09T16:07:48.903Z,15.18
2018-10-09T16:10:17.119Z,21.30
2018-10-09T16:12:45.304Z,14.85
2018-10-09T16:15:13.555Z,18.15
2018-10-09T16:17:41.777Z,14.20
2018-10-09T16:20:09.917Z,17.90
2018-10-09T16:22:38.092Z,17.97
2018-10-09T16:25:06.374Z,15.93
2018-10-09T16:27:34.596Z,17.17
2018-10-09T16:30:02.825Z,13.55
2018-10-09T16:32:30.980Z,16.10
2018-10-09T16:34:59.254Z,14.43
2018-10-09T16:37:27.488Z,13.90
2018-10-09T16:39:55.703Z,15.08
2018-10-09T16:42:23.837Z,16.07
2018-10-09T16:44:52.050Z,12.30
2018-10-09T16:47:20.311Z,14.18
2018-10-09T16:49:48.356Z,15.63
2018-10-09T16:52:16.807Z,15.05
2018-10-09T16:54:45.120Z,16.73
2018-10-09T16:57:13.339Z,14.40
2018-10-09T16:59:42.532Z,16.13
2018-10-09T17:02:10.804Z,13.58
2018-10-09T17:04:39.041Z,16.85
2018-10-09T17:07:07.188Z,13.55
2018-10-09T17:09:35.579Z,14.70
2018-10-09T17:12:03.702Z,18.30
2018-10-09T17:14:31.807Z,16.62
2018-10-09T17:16:59.961Z,14.78
2018-10-09T17:19:28.175Z,17.65
2018-10-09T17:21:56.359Z,12.63
2018-10-09T17:24:25.176Z,15.52
2018-10-09T17:26:53.472Z,16.62
2018-10-09T17:29:21.600Z,19.02
2018-10-09T17:31:49.701Z,18.52
2018-10-09T17:34:17.944Z,19.90
2018-10-09T17:36:46.075Z,19.13
2018-10-09T17:39:14.538Z,20.05
2018-10-09T17:41:42.664Z,20.12
2018-10-09T17:44:10.861Z,22.52
2018-10-09T17:46:39.352Z,21.15
2018-10-09T17:49:07.528Z,22.58
2018-10-09T17:51:36.025Z,23.22
2018-10-09T17:54:04.212Z,19.02
2018-10-09T17:56:32.485Z,21.85
2018-10-09T17:59:00.643Z,21.75
2018-10-09T18:01:28.755Z,19.02
2018-10-09T18:03:56.974Z,21.25
2018-10-09T18:06:25.229Z,22.20
2018-10-09T18:08:53.490Z,16.23
2018-10-09T18:11:21.647Z,15.90
2018-10-09T18:13:49.796Z,22.60
2018-10-09T18:16:18.009Z,16.48
2018-10-09T18:18:46.340Z,20.45
2018-10-09T18:21:14.544Z,19.82
2018-10-09T18:23:42.897Z,21.90
2018-10-09T18:26:11.110Z,21.57
2018-10-09T18:28:39.264Z,21.07
2018-10-09T18:31:07.402Z,21.60
2018-10-09T18:33:35.672Z,18.20
2018-10-09T18:36:03.865Z,19.87
2018-10-09T18:38:31.998Z,20.60
2018-10-09T18:41:00.189Z,17.70
2018-10-09T18:43:28.440Z,17.40
2018-10-09T18:45:56.617Z,16.48
2018-10-09T18:48:24.884Z,18.60
2018-10-09T18:50:53.036Z,18.90
2018-10-09T18:53:21.177Z,17.00
2018-10-09T18:55:49.364Z,18.10
2018-10-09T18:58:17.665Z,20.08
2018-10-09T19:00:45.908Z,21.42
2018-10-09T19:03:14.049Z,20.62
2018-10-09T19:05:42.184Z,24.27
2018-10-09T19:08:16.712Z,26.80
2018-10-09T19:10:44.982Z,21.35
2018-10-09T19:13:13.074Z,23.10
2018-10-09T19:15:41.465Z,27.98
2018-10-09T19:18:09.893Z,19.05
2018-10-09T19:20:38.124Z,20.90
2018-10-09T19:23:06.624Z,25.77
2018-10-09T19:25:34.830Z,24.87
2018-10-09T19:28:02.955Z,25.32
2018-10-09T19:30:31.102Z,24.72
2018-10-09T19:32:59.260Z,25.10
2018-10-09T19:35:27.374Z,22.32
2018-10-09T19:37:55.576Z,31.23
2018-10-09T19:40:23.976Z,30.55
2018-10-09T19:42:52.156Z,23.27
2018-10-09T19:45:20.408Z,21.70
2018-10-09T19:47:48.556Z,23.07
2018-10-09T19:50:16.692Z,23.30
2018-10-09T19:52:44.945Z,19.10
2018-10-09T19:55:13.124Z,22.05
2018-10-09T19:57:41.312Z,20.77
2018-10-09T20:00:09.535Z,23.57
2018-10-09T20:02:37.867Z,21.62
2018-10-09T20:05:06.029Z,24.85
2018-10-09T20:07:34.264Z,21.30
2018-10-09T20:10:02.580Z,24.92
2018-10-09T20:12:30.757Z,28.23
2018-10-09T20:14:58.978Z,28.42
2018-10-09T20:17:27.206Z,26.20
2018-10-09T20:19:55.488Z,21.68
2018-10-09T20:22:24.156Z,23.67
2018-10-09T20:24:52.321Z,24.27
2018-10-09T20:27:20.572Z,25.62
2018-10-09T20:29:48.717Z,25.45
2018-10-09T20:32:16.977Z,25.80
2018-10-09T20:34:45.093Z,28.15
2018-10-09T20:37:13.235Z,22.70
2018-10-09T20:39:41.384Z,24.13
2018-10-09T20:42:09.812Z,22.10
2018-10-09T20:44:38.234Z,22.82
2018-10-09T20:47:06.550Z,23.85
2018-10-09T20:49:34.744Z,23.47
2018-10-09T20:52:02.933Z,24.55
2018-10-09T20:54:31.279Z,24.43
2018-10-09T20:56:59.831Z,25.90
2018-10-09T20:59:28.026Z,28.38
2018-10-09T21:01:56.228Z,23.92
2018-10-09T21:04:24.379Z,31.82
2018-10-09T21:06:52.636Z,24.82
2018-10-09T21:09:20.759Z,21.30
2018-10-09T21:11:48.987Z,27.32
2018-10-09T21:14:17.157Z,26.75
2018-10-09T21:16:45.300Z,25.30
2018-10-09T21:19:13.728Z,26.62
2018-10-09T21:21:42.178Z,26.60
2018-10-09T21:24:10.410Z,26.50
2018-10-09T21:26:38.667Z,25.97
2018-10-09T21:29:06.857Z,26.27
2018-10-09T21:31:35.034Z,29.65
2018-10-09T21:34:03.327Z,26.82
2018-10-09T21:36:31.665Z,24.43
2018-10-09T21:38:59.929Z,25.80
2018-10-09T21:41:28.256Z,26.12
2018-10-09T21:43:56.576Z,25.55
2018-10-09T21:46:24.684Z,25.82
2018-10-09T21:48:52.914Z,22.67
2018-10-09T21:51:21.064Z,26.93
2018-10-09T21:53:49.279Z,32.73
2018-10-09T21:56:17.465Z,22.90
2018-10-09T21:58:45.672Z,27.58
2018-10-09T22:01:13.900Z,24.30
2018-10-09T22:03:42.334Z,23.30
2018-10-09T22:06:11.056Z,23.62
2018-10-09T22:08:39.748Z,26.70
2018-10-09T22:11:08.144Z,28.75
2018-10-09T22:13:36.998Z,24.72
2018-10-09T22:16:05.212Z,24.57
2018-10-09T22:18:33.408Z,30.57
2018-10-09T22:21:01.548Z,31.45
2018-10-09T22:23:29.762Z,27.70
2018-10-09T22:25:57.968Z,26.97
2018-10-09T22:28:26.084Z,26.77
2018-10-09T22:30:54.195Z,27.82
2018-10-09T22:33:22.344Z,26.45
2018-10-09T22:35:50.494Z,29.55
2018-10-09T22:38:18.712Z,28.35
2018-10-09T22:40:46.860Z,28.25
2018-10-09T22:43:15.135Z,32.42
2018-10-09T22:45:43.271Z,29.48
2018-10-09T22:48:11.463Z,27.60
2018-10-09T22:50:39.597Z,26.60
2018-10-09T22:53:07.839Z,27.98
2018-10-09T22:55:35.976Z,26.12
2018-10-09T22:58:04.101Z,30.60
2018-10-09T23:00:32.276Z,25.95
2018-10-09T23:03:00.553Z,29.42
2018-10-09T23:05:28.675Z,30.08
2018-10-09T23:07:56.808Z,26.33
2018-10-09T23:10:24.916Z,25.30
2018-10-09T23:12:53.069Z,27.58
2018-10-09T23:15:21.201Z,23.22
2018-10-09T23:17:49.330Z,28.83
2018-10-09T23:20:17.460Z,25.77
2018-10-09T23:22:45.574Z,26.05
2018-10-09T23:25:13.753Z,28.77
2018-10-09T23:27:41.883Z,25.17
2018-10-09T23:30:10.531Z,24.52
2018-10-09T23:32:38.659Z,26.80
2018-10-09T23:35:06.983Z,24.15
2018-10-09T23:37:35.146Z,22.48
2018-10-09T23:40:03.293Z,25.17
2018-10-09T23:42:31.489Z,23.18
2018-10-09T23:44:59.631Z,22.75
2018-10-09T23:47:27.745Z,23.25
2018-10-09T23:49:55.910Z,25.62
2018-10-09T23:52:24.338Z,28.57
2018-10-09T23:54:52.527Z,22.03
2018-10-09T23:57:20.740Z,22.10
2018-10-09T23:59:48.859Z,23.55
